Brooks, California
Current Conditions -  °F | °C
As of 9:55 PM on Friday 19 Dec 2014 (Local Time) from KEDU Reporting Station
Overcast Overcast  
Wind Chill: 52°   Ceiling: 600
Heat Index: 52°   Visibility: 5mi
Dew Point: 50°   Wind: 5mph
Humidity: 94%   Direction: 160°SSE
Pressure: 30.16"   Gusts: NA
Location:  38.74°N, 122.15°W
Report Text: KEDU 200555Z AUTO 16004KT 5SM OVC006 11/10 A3016 RMK AO1
Loading
Personal Weather Stations






























Interactive Weather Map New forecast layout! Learn more

10-Day Weather Forecast

Advertisements
Track Severe Weather on mobile